Rock Creek, MN (55067)

11:51 PM CDT on April 21, 2015 (GMT -0500)
Rush City Regional | | Change Station
CLOSE
Current Station
Airport
Location: Rush City,
Elevation: 922 ft
Nearby Weather Stations
Active Advisory: Fire Weather Watch

Elev 922 ft 45.70 °N, 92.95 °W | Updated 16 minutes ago

Overcast
Overcast
32 °F
Feels Like 25 °F
N
8
Wind Variable Wind from NW

Today
High -- | Low -- °F
--% Chance of Precip.
Yesterday
High -- | Low -- °F
Precip. -- in
6:15 AM 8:05 PM
Waxing Crescent, 15% visible
Pressure 29.76 in
Visibility 10.0 miles
Clouds Scattered Clouds 3300 ft
Overcast 4700 ft
Windchill 25 °F
Dew Point 23 °F
Humidity 68%
Rainfall 0.00 in
Snow Depth Not available.
UV 0 out of 12
Pollen 7.80 out of 12
Air Quality Not available.
Flu Activity Local Activity
METAR KROS 220435Z AUTO 32007KT 10SM SCT033 OVC047 00/M05 A2976 RMK AO2 T00021051

More Conditions Fewer Conditions

Pressure 29.76 in
Visibility 10.0 miles
Clouds Scattered Clouds 3300 ft
Overcast 4700 ft
Windchill 25 °F
Dew Point 23 °F
Humidity 68%
Rainfall 0.00 in
Snow Depth Not available.
UV 0 out of 12
Pollen 7.80 out of 12
Air Quality Not available.
Flu Activity Local Activity
METAR KROS 220435Z AUTO 32007KT 10SM SCT033 OVC047 00/M05 A2976 RMK AO2 T00021051

More Conditions Fewer Conditions

10-Day Weather Forecast

Almanac

Astronomy

Apr. 21, 2015 Rise Set
Actual Time
Civil Twilight
Nautical Twilight
Astronomical Twilight
Moon
Length of Visible Light
Length of Day
Tomorrow will be .
, % of the Moon is Illuminated

Today's Extremes

State Highs State Lows

Community

WunderPhotos

Upload Photos

1,815,668 photos uploaded!

WunderBlogs® & News

Nearby

Air Quality

  Air Quality AQ Index Pollutant
Not available.

Snow Depth

Station Depth Elevation

Earthquake Activity

City Distance Mag. Time & Date
Minimum magnitude displayed is 2.5.

Coastal Water Temperatures

Place Temperature

Stations

Nearby Weather Stations

Station Location Temp. Windchill Dew Point Humidity Wind Precip. Elev Updated Type
                   
Fire Weather Watch
Statement as of 3:47 PM CDT on April 21, 2015

... Fire Weather Watch in effect from Wednesday afternoon through
Wednesday evening for low humidity and strong winds for parts of
northeast Minnesota...

The National Weather Service in Duluth has issued a Fire Weather
Watch for parts of northeast Minnesota... which is in effect from Wednesday
afternoon through Wednesday evening.

* Affected area... in Minnesota... fire weather zones 033... 034...
036 and 038.

* Winds... northwest 15 to 20 mph with gusts up to 30 mph.

* Relative humidity... as low as 20 percent.

* Temperatures... in the lower 40s.

* Impacts... any fires that may develop could spread quickly.

Precautionary/preparedness actions...

A Fire Weather Watch means that critical fire weather conditions
are forecast to occur. Listen for later forecasts and possible
red flag warnings.



Clc